»·PEaware :: N577SP KSBA-KSMX

N577SP :: KSBA-KSMX

FLIGHT INFORMATION

Flight Status: Arrived
Operator: Privately registered:
United States
More flights under this callsign
Pilot: Janevah W. (242)
Aircraft: CESSNA 172 SKYHAWK
(C172)
More flights by this aircraft type
Origin: KSBA Santa Barbara Mun
United States
Destination: KSMX Santa Maria Pub/Capt Hancock
United States
More flights between these airports :: More routes between these airports
Route: FLOUT5 RZS
File this flight plan on PilotEdge
Remarks: I-10 practice
Altitude:
(Current/Filed)
6,000ft
Speed:
(Current/Filed)
112kts
Departed: 04-Jun-17 05:31 PM
Arrived: 04-Jun-17 06:17 PM
Distance/Time
Traveled:
41nm/0:46
Distance/Time
To Go:
Arrived

Flight Plot

Page will automatically refresh every two minutes.


Map Options




Map Legend


Flown Route
Filed Route
Departure Airport
Arrival Airport
Navaid (VOR, NDB)
Fix

Horizontal Profiles

Position Reports

Time Latitude Longitude Heading Altitude Ground
Speed
04-Jun-17 17:09 34.426268 -119.836571 180 13ft 0kts
04-Jun-17 17:10 34.426268 -119.836571 180 13ft 0kts
04-Jun-17 17:11 34.426268 -119.836571 180 13ft 0kts
04-Jun-17 17:12 34.426268 -119.836571 180 13ft 0kts
04-Jun-17 17:13 34.426268 -119.836571 180 13ft 0kts
04-Jun-17 17:14 34.426268 -119.836571 180 13ft 0kts
04-Jun-17 17:15 34.426268 -119.836571 180 13ft 0kts
04-Jun-17 17:16 34.426268 -119.836571 180 13ft 0kts
04-Jun-17 17:17 34.426268 -119.836571 180 13ft 0kts
04-Jun-17 17:18 34.426268 -119.836571 180 13ft 0kts
04-Jun-17 17:19 34.426268 -119.836571 180 13ft 0kts
04-Jun-17 17:20 34.426268 -119.836571 180 13ft 0kts
04-Jun-17 17:21 34.426268 -119.836571 180 13ft 0kts
04-Jun-17 17:22 34.426268 -119.836571 180 13ft 0kts
04-Jun-17 17:23 34.426268 -119.836571 180 13ft 0kts
04-Jun-17 17:24 34.426268 -119.836571 180 13ft 0kts
04-Jun-17 17:25 34.426268 -119.836571 180 13ft 0kts
04-Jun-17 17:26 34.426268 -119.836571 180 13ft 0kts
04-Jun-17 17:27 34.426268 -119.836571 180 13ft 0kts
04-Jun-17 17:28 34.426268 -119.836571 180 13ft 0kts
04-Jun-17 17:29 34.426268 -119.836571 180 13ft 0kts
04-Jun-17 17:30 34.426519 -119.836938 351 13ft 9kts
04-Jun-17 17:31 34.427309 -119.835151 357 13ft 0kts
04-Jun-17 17:32 34.427430 -119.835155 358 13ft 7kts
04-Jun-17 17:33 34.427902 -119.846507 271 341ft 64kts
04-Jun-17 17:34 34.413339 -119.853055 165 1141ft 82kts
04-Jun-17 17:35 34.390583 -119.852977 209 1869ft 86kts
04-Jun-17 17:36 34.370889 -119.869547 226 2582ft 85kts
04-Jun-17 17:37 34.349748 -119.885210 209 3208ft 93kts
04-Jun-17 17:38 34.325679 -119.898994 219 3762ft 93kts
04-Jun-17 17:39 34.304143 -119.917055 214 4330ft 92kts
04-Jun-17 17:40 34.280961 -119.932489 223 4868ft 88kts
04-Jun-17 17:41 34.258343 -119.949714 219 5252ft 99kts
04-Jun-17 17:42 34.236630 -119.954944 104 5653ft 103kts
04-Jun-17 17:43 34.254704 -119.938590 9 6033ft 87kts
04-Jun-17 17:44 34.280576 -119.934929 28 6170ft 98kts
04-Jun-17 17:45 34.304754 -119.915524 13 6069ft 112kts
04-Jun-17 17:46 34.335529 -119.908168 8 5874ft 112kts
04-Jun-17 17:47 34.360177 -119.889193 45 5957ft 109kts
04-Jun-17 17:48 34.381925 -119.864073 33 6010ft 106kts
04-Jun-17 17:49 34.406846 -119.844861 18 6036ft 105kts
04-Jun-17 17:50 34.433247 -119.827806 30 6017ft 108kts
04-Jun-17 17:51 34.458323 -119.807045 29 5949ft 112kts
04-Jun-17 17:52 34.484642 -119.789363 22 5972ft 107kts
04-Jun-17 17:53 34.510909 -119.773716 350 5964ft 104kts
04-Jun-17 17:54 34.523763 -119.803045 301 5947ft 104kts
04-Jun-17 17:55 34.538518 -119.833020 305 5984ft 103kts
04-Jun-17 17:56 34.552528 -119.863897 303 5992ft 105kts
04-Jun-17 17:57 34.561196 -119.882970 305 5980ft 106kts
04-Jun-17 17:58 34.568363 -119.895253 309 5965ft 107kts
04-Jun-17 17:59 34.583533 -119.925577 301 5982ft 103kts
04-Jun-17 18:00 34.596949 -119.957401 297 5965ft 106kts
04-Jun-17 18:01 34.611158 -119.988267 307 5985ft 104kts
04-Jun-17 18:02 34.625966 -120.018994 296 5970ft 105kts
04-Jun-17 18:03 34.638790 -120.051087 299 5962ft 105kts
04-Jun-17 18:04 34.650641 -120.084167 298 5661ft 110kts
04-Jun-17 18:05 34.666292 -120.116721 302 5180ft 115kts
04-Jun-17 18:06 34.684082 -120.147957 308 4740ft 110kts
04-Jun-17 18:07 34.699718 -120.178445 297 4565ft 100kts
04-Jun-17 18:08 34.712038 -120.209137 304 4618ft 100kts
04-Jun-17 18:09 34.727395 -120.238072 309 4619ft 102kts
04-Jun-17 18:10 34.742591 -120.267216 312 4592ft 105kts
04-Jun-17 18:11 34.763076 -120.291238 319 4557ft 103kts
04-Jun-17 18:12 34.784244 -120.316459 320 4111ft 106kts
04-Jun-17 18:13 34.805063 -120.342043 317 3471ft 106kts
04-Jun-17 18:14 34.826249 -120.366024 318 2909ft 99kts
04-Jun-17 18:15 34.844800 -120.388618 318 2206ft 90kts
04-Jun-17 18:16 34.861440 -120.408513 313 1657ft 75kts
04-Jun-17 18:17 34.876063 -120.425838 315 1256ft 74kts
04-Jun-17 18:18 34.889077 -120.441382 315 402ft 54kts
04-Jun-17 18:19 34.896356 -120.449947 346 264ft 11kts
04-Jun-17 18:20 34.897886 -120.449969 19 264ft 13kts
04-Jun-17 18:21 34.898794 -120.448526 29 264ft 0kts
04-Jun-17 18:22 34.898794 -120.448526 29 264ft 0kts
04-Jun-17 18:23 34.898794 -120.448526 29 264ft 0kts

Navigation Log

Ident Type
1. KSBA Airport
2. FLOUT Fix
3. RZS Navaid
4. KSMX Airport